Greenwood, CFB Greenwood (CYZX)

NameCFB Greenwood
CityGreenwood
CountryCanada
ICAOCYZX
IATAYZX
Altitude28 m
CoordinatesGoogle Map
Live Air TrafficLiveATC.net
METARCYZX 150500Z 23006KT 12SM FEW012 OVC058 02/00 A3020 RMK SF2SC6 SLP228
2018-12-15 05:00:00 Wind: Southwest (230°) 3.09 m/s - Visibility: 19312.08 m - Temperature: 2 °C - Dew point: 0 °C - Humidity: 86.8% - Pressure: 1022.69 hPa

Sorry, no flights used the airport in this database.